Time;durP1;ratioP1;P1;durP2;ratioP2;P2;SDS_P1;SDS_P2;PMS_P1;PMS_P2;Temp;Humidity;BMP_temperature;BMP_pressure;BME280_temperature;BME280_humidity;BME280_pressure;Samples;Min_cycle;Max_cycle;Signal;HPM_P1;HPM_P2
2023/08/01 00:00:46;;;;;;;11.85;9.70;;;;;;;;;;5094527;28;20563;-72
2023/08/01 00:03:14;;;;;;;10.90;9.55;;;;;;;;;;5094481;28;20047;-72
2023/08/01 00:05:44;;;;;;;11.10;10.00;;;;;;;;;;5094343;28;20405;-72
2023/08/01 00:08:12;;;;;;;10.43;9.43;;;;;;;;;;5094497;28;20042;-72
2023/08/01 00:10:40;;;;;;;11.85;10.65;;;;;;;;;;5094263;28;20036;-72
2023/08/01 00:13:08;;;;;;;11.60;10.45;;;;;;;;;;5094121;28;20040;-72
2023/08/01 00:15:35;;;;;;;11.93;10.82;;;;;;;;;;5094208;28;20036;-72
2023/08/01 00:18:03;;;;;;;12.00;10.80;;;;;;;;;;5094188;28;20123;-72
2023/08/01 00:20:30;;;;;;;12.07;10.93;;;;;;;;;;5094044;28;20040;-72
2023/08/01 00:22:58;;;;;;;12.70;11.32;;;;;;;;;;5094069;28;20055;-72
2023/08/01 00:25:25;;;;;;;12.52;11.23;;;;;;;;;;5092728;28;20344;-72
2023/08/01 00:27:53;;;;;;;12.43;11.20;;;;;;;;;;5094205;28;20424;-72
2023/08/01 00:30:21;;;;;;;12.73;11.43;;;;;;;;;;5093920;28;20068;-72
2023/08/01 00:32:48;;;;;;;11.88;10.77;;;;;;;;;;5092423;28;20568;-72
2023/08/01 00:35:16;;;;;;;11.68;10.52;;;;;;;;;;5092464;28;20101;-72
2023/08/01 00:37:44;;;;;;;12.65;10.45;;;;;;;;;;5092562;28;20452;-72
2023/08/01 00:40:12;;;;;;;11.70;10.18;;;;;;;;;;5092602;28;20504;-72
2023/08/01 00:42:39;;;;;;;11.27;10.18;;;;;;;;;;5092462;28;20059;-72
2023/08/01 00:45:07;;;;;;;11.50;10.30;;;;;;;;;;5092351;28;20547;-72
2023/08/01 00:47:35;;;;;;;14.18;11.25;;;;;;;;;;5092201;28;20048;-72
2023/08/01 00:50:03;;;;;;;11.57;10.38;;;;;;;;;;5093249;28;20072;-72
2023/08/01 00:52:31;;;;;;;12.40;11.10;;;;;;;;;;5092306;28;20052;-72
2023/08/01 00:54:58;;;;;;;12.02;10.85;;;;;;;;;;5092289;28;20059;-72
2023/08/01 00:57:26;;;;;;;12.00;10.82;;;;;;;;;;5093399;28;20047;-72
2023/08/01 00:59:53;;;;;;;12.40;11.10;;;;;;;;;;5092117;28;20048;-72
2023/08/01 01:02:20;;;;;;;11.90;10.65;;;;;;;;;;5092042;28;20478;-72
2023/08/01 01:04:48;;;;;;;11.77;10.60;;;;;;;;;;5091289;28;20044;-72
2023/08/01 01:07:17;;;;;;;12.45;11.00;;;;;;;;;;5091956;28;20036;-73
2023/08/01 01:09:45;;;;;;;12.95;11.43;;;;;;;;;;5091893;28;20051;-72
2023/08/01 01:12:12;;;;;;;12.43;11.23;;;;;;;;;;5091786;28;20485;-72
2023/08/01 01:14:40;;;;;;;12.55;11.25;;;;;;;;;;5091884;28;20125;-72
2023/08/01 01:17:07;;;;;;;13.02;11.50;;;;;;;;;;5091795;28;20036;-72
2023/08/01 01:19:35;;;;;;;12.85;11.48;;;;;;;;;;5092921;28;20036;-72
2023/08/01 01:22:19;;;;;;;12.85;11.50;;;;;;;;;;5091754;28;20487;-72
2023/08/01 01:24:48;;;;;;;13.10;11.80;;;;;;;;;;5091526;28;20048;-72
2023/08/01 01:27:16;;;;;;;13.20;11.82;;;;;;;;;;5091710;28;20040;-72
2023/08/01 01:29:44;;;;;;;12.73;11.43;;;;;;;;;;5091337;28;20044;-72
2023/08/01 01:32:12;;;;;;;13.35;11.95;;;;;;;;;;5091627;28;20557;-72
2023/08/01 01:34:39;;;;;;;13.27;11.85;;;;;;;;;;5091502;28;20254;-72
2023/08/01 01:37:07;;;;;;;13.00;11.60;;;;;;;;;;5091581;28;20115;-72
2023/08/01 01:39:34;;;;;;;13.82;12.43;;;;;;;;;;5092704;28;20484;-72
2023/08/01 01:42:02;;;;;;;13.57;12.13;;;;;;;;;;5093691;28;20044;-73
2023/08/01 01:44:31;;;;;;;14.57;13.02;;;;;;;;;;5094156;28;20500;-72
2023/08/01 01:46:59;;;;;;;14.55;13.05;;;;;;;;;;5091432;28;20050;-72
2023/08/01 01:49:26;;;;;;;14.00;12.70;;;;;;;;;;5092427;28;20040;-72
2023/08/01 01:51:54;;;;;;;16.35;13.52;;;;;;;;;;5091277;28;20123;-72
2023/08/01 01:54:24;;;;;;;14.60;13.10;;;;;;;;;;5091349;28;20048;-72
2023/08/01 01:56:52;;;;;;;15.48;13.93;;;;;;;;;;5091217;28;20090;-72
2023/08/01 01:59:19;;;;;;;14.82;13.15;;;;;;;;;;5091248;28;20059;-72
2023/08/01 02:01:47;;;;;;;14.38;12.93;;;;;;;;;;5091351;28;20511;-72
2023/08/01 02:04:14;;;;;;;16.38;13.90;;;;;;;;;;5091060;28;20048;-72
2023/08/01 02:06:42;;;;;;;15.60;13.98;;;;;;;;;;5092442;28;20048;-72
2023/08/01 02:09:09;;;;;;;15.07;13.48;;;;;;;;;;5091123;28;20040;-72
2023/08/01 02:11:37;;;;;;;14.00;12.60;;;;;;;;;;5091205;28;20045;-72
2023/08/01 02:14:05;;;;;;;13.75;12.40;;;;;;;;;;5091196;28;20043;-72
2023/08/01 02:16:32;;;;;;;14.57;13.05;;;;;;;;;;5094234;28;20054;-73
2023/08/01 02:19:00;;;;;;;14.60;13.07;;;;;;;;;;5095245;28;20498;-72
2023/08/01 02:21:27;;;;;;;14.15;12.75;;;;;;;;;;5095201;28;20527;-72
2023/08/01 02:23:55;;;;;;;16.77;12.98;;;;;;;;;;5095250;28;20051;-72
2023/08/01 02:26:24;;;;;;;14.68;13.20;;;;;;;;;;5095035;28;20047;-72
2023/08/01 02:28:51;;;;;;;14.45;12.90;;;;;;;;;;5096203;28;20474;-72
2023/08/01 02:31:19;;;;;;;14.25;12.80;;;;;;;;;;5094696;28;20040;-72
2023/08/01 02:33:47;;;;;;;14.70;12.90;;;;;;;;;;5096209;28;20353;-72
2023/08/01 02:36:15;;;;;;;13.70;12.30;;;;;;;;;;5094692;28;20044;-72
2023/08/01 02:38:42;;;;;;;14.52;12.93;;;;;;;;;;5094940;28;20064;-72
2023/08/01 02:41:10;;;;;;;13.85;12.45;;;;;;;;;;5095982;28;20378;-72
2023/08/01 02:43:37;;;;;;;13.93;12.43;;;;;;;;;;5094818;28;20102;-72
2023/08/01 02:46:05;;;;;;;14.30;12.90;;;;;;;;;;5095892;28;20482;-72
2023/08/01 02:48:34;;;;;;;14.25;12.75;;;;;;;;;;5094737;28;20082;-72
2023/08/01 02:51:02;;;;;;;14.07;12.60;;;;;;;;;;5094469;28;20051;-72
2023/08/01 02:53:30;;;;;;;14.02;12.60;;;;;;;;;;5094439;28;20123;-72
2023/08/01 02:55:57;;;;;;;15.32;12.75;;;;;;;;;;5094338;28;20048;-72
2023/08/01 02:58:25;;;;;;;13.10;11.80;;;;;;;;;;5094286;28;20067;-72
2023/08/01 03:00:52;;;;;;;14.15;12.75;;;;;;;;;;5095749;28;20040;-72
2023/08/01 03:03:20;;;;;;;14.77;12.30;;;;;;;;;;5095523;28;20505;-72
2023/08/01 03:05:48;;;;;;;15.05;13.07;;;;;;;;;;5094302;28;20039;-72
2023/08/01 03:08:15;;;;;;;15.10;13.60;;;;;;;;;;5094206;28;20048;-72
2023/08/01 03:10:43;;;;;;;15.75;14.15;;;;;;;;;;5095368;28;20044;-72
2023/08/01 03:13:10;;;;;;;15.77;14.00;;;;;;;;;;5094269;28;20098;-72
2023/08/01 03:15:38;;;;;;;14.27;12.80;;;;;;;;;;5094122;28;20036;-73
2023/08/01 03:18:05;;;;;;;16.88;12.93;;;;;;;;;;5094007;28;20048;-73
2023/08/01 03:20:34;;;;;;;14.75;12.70;;;;;;;;;;5095311;28;20071;-73
2023/08/01 03:23:01;;;;;;;15.50;12.70;;;;;;;;;;5093820;28;20044;-72
2023/08/01 03:25:29;;;;;;;14.63;13.05;;;;;;;;;;5093812;28;20055;-72
2023/08/01 03:27:57;;;;;;;14.35;12.95;;;;;;;;;;5094562;28;20115;-72
2023/08/01 03:30:25;;;;;;;14.35;12.85;;;;;;;;;;5093452;28;20047;-72
2023/08/01 03:32:55;;;;;;;16.17;13.38;;;;;;;;;;5093669;28;20032;-72
2023/08/01 03:35:23;;;;;;;14.95;11.98;;;;;;;;;;5093427;28;20052;-72
2023/08/01 03:37:52;;;;;;;13.75;12.35;;;;;;;;;;5073495;28;20036;-72
2023/08/01 03:40:19;;;;;;;13.57;12.02;;;;;;;;;;5090206;28;20076;-72
2023/08/01 03:42:47;;;;;;;15.65;12.98;;;;;;;;;;5073506;28;20045;-72
2023/08/01 03:45:14;;;;;;;13.43;12.13;;;;;;;;;;5073225;28;20616;-72
2023/08/01 03:47:42;;;;;;;15.05;12.85;;;;;;;;;;5073019;28;20041;-72
2023/08/01 03:50:10;;;;;;;14.50;12.75;;;;;;;;;;5074510;28;20505;-72
2023/08/01 03:52:37;;;;;;;17.75;12.35;;;;;;;;;;5074281;28;20048;-72
2023/08/01 03:55:05;;;;;;;14.25;12.27;;;;;;;;;;5073115;28;20044;-72
2023/08/01 03:57:35;;;;;;;15.15;12.65;;;;;;;;;;5089952;28;20120;-71
2023/08/01 04:00:03;;;;;;;16.20;13.25;;;;;;;;;;5072880;28;20094;-72
2023/08/01 04:02:38;;;;;;;16.45;13.13;;;;;;;;;;5073018;28;20084;-72
2023/08/01 04:05:06;;;;;;;15.57;13.38;;;;;;;;;;5071551;28;20155;-72
2023/08/01 04:07:33;;;;;;;15.05;13.50;;;;;;;;;;5072213;28;20056;-71
2023/08/01 04:10:01;;;;;;;15.32;13.02;;;;;;;;;;5073074;28;20051;-72
2023/08/01 04:12:29;;;;;;;15.40;13.90;;;;;;;;;;5074080;28;20036;-72
2023/08/01 04:15:00;;;;;;;14.55;13.02;;;;;;;;;;5073971;28;20120;-72
2023/08/01 04:17:29;;;;;;;17.50;13.63;;;;;;;;;;5074072;28;20048;-72
2023/08/01 04:19:57;;;;;;;18.08;13.55;;;;;;;;;;5074008;28;20453;-72
2023/08/01 04:22:24;;;;;;;15.70;14.00;;;;;;;;;;5073733;28;20098;-72
2023/08/01 04:24:52;;;;;;;14.70;13.18;;;;;;;;;;5073734;28;20124;-71
2023/08/01 04:27:19;;;;;;;15.05;12.90;;;;;;;;;;5073792;28;20041;-72
2023/08/01 04:29:47;;;;;;;17.23;14.35;;;;;;;;;;5073699;28;20050;-72
2023/08/01 04:32:15;;;;;;;16.02;12.27;;;;;;;;;;5073574;28;20107;-72
2023/08/01 04:34:42;;;;;;;14.73;13.30;;;;;;;;;;5073684;28;20086;-71
2023/08/01 04:37:13;;;;;;;13.75;12.38;;;;;;;;;;5073531;28;20109;-71
2023/08/01 04:39:40;;;;;;;15.07;13.35;;;;;;;;;;5072478;28;20044;-69
2023/08/01 04:42:08;;;;;;;18.08;15.07;;;;;;;;;;5091884;28;20044;-67
2023/08/01 04:44:35;;;;;;;13.85;12.45;;;;;;;;;;5093130;28;20405;-67
2023/08/01 04:47:03;;;;;;;14.13;12.73;;;;;;;;;;5093474;28;20040;-67
2023/08/01 04:49:30;;;;;;;15.43;13.13;;;;;;;;;;5093515;28;20063;-67
2023/08/01 04:51:57;;;;;;;14.43;12.95;;;;;;;;;;5092648;28;20043;-67
2023/08/01 04:54:25;;;;;;;13.50;12.15;;;;;;;;;;5093486;28;20490;-67
2023/08/01 04:56:52;;;;;;;13.60;12.20;;;;;;;;;;5093395;28;20117;-67
2023/08/01 04:59:20;;;;;;;13.70;12.02;;;;;;;;;;5093317;28;20051;-67
2023/08/01 05:01:47;;;;;;;15.77;12.70;;;;;;;;;;5093581;28;20466;-67
2023/08/01 05:04:15;;;;;;;14.02;12.25;;;;;;;;;;5093503;28;20044;-67
2023/08/01 05:06:42;;;;;;;13.25;11.90;;;;;;;;;;5093300;28;20037;-68
2023/08/01 05:09:10;;;;;;;13.40;12.02;;;;;;;;;;5093395;28;20396;-67
2023/08/01 05:11:37;;;;;;;13.00;11.70;;;;;;;;;;5093423;28;20059;-67
2023/08/01 05:14:05;;;;;;;12.25;10.95;;;;;;;;;;5093279;28;20047;-67
2023/08/01 05:16:33;;;;;;;14.68;11.88;;;;;;;;;;5093249;28;20079;-67
2023/08/01 05:19:00;;;;;;;13.57;11.75;;;;;;;;;;5093334;28;20036;-67
2023/08/01 05:21:28;;;;;;;15.75;11.82;;;;;;;;;;5093015;28;20048;-67
2023/08/01 05:23:55;;;;;;;12.70;11.50;;;;;;;;;;5093180;28;20048;-67
2023/08/01 05:26:23;;;;;;;12.35;11.13;;;;;;;;;;5092926;28;20040;-67
2023/08/01 05:28:50;;;;;;;13.20;11.80;;;;;;;;;;5092950;28;20126;-67
2023/08/01 05:31:18;;;;;;;13.02;11.73;;;;;;;;;;5092933;28;20093;-67
2023/08/01 05:33:45;;;;;;;13.65;12.18;;;;;;;;;;5093254;28;20043;-67
2023/08/01 05:36:13;;;;;;;13.50;12.10;;;;;;;;;;5092862;28;20047;-67
2023/08/01 05:38:40;;;;;;;13.85;12.50;;;;;;;;;;5092872;28;20059;-67
2023/08/01 05:41:08;;;;;;;14.45;13.00;;;;;;;;;;5093029;28;20070;-67
2023/08/01 05:43:35;;;;;;;16.88;13.30;;;;;;;;;;5092974;28;20040;-67
2023/08/01 05:46:03;;;;;;;15.52;13.32;;;;;;;;;;5092792;28;20067;-67
2023/08/01 05:48:31;;;;;;;14.48;13.07;;;;;;;;;;5092706;28;20050;-67
2023/08/01 05:50:58;;;;;;;15.45;13.48;;;;;;;;;;5092167;28;20040;-67
2023/08/01 05:53:27;;;;;;;13.88;12.48;;;;;;;;;;5092685;28;20079;-67
2023/08/01 05:55:54;;;;;;;15.05;13.27;;;;;;;;;;5091426;28;20046;-67
2023/08/01 05:58:22;;;;;;;14.77;12.07;;;;;;;;;;5092526;28;20456;-67
2023/08/01 06:00:49;;;;;;;14.13;12.55;;;;;;;;;;5092631;28;20048;-67
2023/08/01 06:03:17;;;;;;;14.20;12.70;;;;;;;;;;5092540;28;20064;-67
2023/08/01 06:05:45;;;;;;;12.65;10.95;;;;;;;;;;5092546;28;20075;-67
2023/08/01 06:08:15;;;;;;;12.35;11.10;;;;;;;;;;5092465;28;20064;-67
2023/08/01 06:10:43;;;;;;;13.88;11.23;;;;;;;;;;5092425;28;20089;-67
2023/08/01 06:13:10;;;;;;;11.98;10.80;;;;;;;;;;5092502;28;20036;-67
2023/08/01 06:15:37;;;;;;;12.43;11.23;;;;;;;;;;5092475;28;20036;-67
2023/08/01 06:18:05;;;;;;;12.98;11.68;;;;;;;;;;5092432;28;20494;-67
2023/08/01 06:20:32;;;;;;;12.40;11.20;;;;;;;;;;5092762;28;20117;-67
2023/08/01 06:23:00;;;;;;;11.52;10.35;;;;;;;;;;5092293;28;20040;-67
2023/08/01 06:25:27;;;;;;;11.95;10.73;;;;;;;;;;5092007;28;20155;-67
2023/08/01 06:27:55;;;;;;;13.98;11.15;;;;;;;;;;5092290;28;20044;-67
2023/08/01 06:30:23;;;;;;;12.10;10.80;;;;;;;;;;5092163;28;20032;-67
2023/08/01 06:32:50;;;;;;;12.23;9.90;;;;;;;;;;5092253;28;20063;-67
2023/08/01 06:35:18;;;;;;;11.05;9.45;;;;;;;;;;5092196;28;20040;-67
2023/08/01 06:37:45;;;;;;;9.25;8.35;;;;;;;;;;5092002;28;20060;-67
2023/08/01 06:40:13;;;;;;;10.27;9.25;;;;;;;;;;5092130;28;20036;-67
2023/08/01 06:42:41;;;;;;;9.77;8.88;;;;;;;;;;5092128;28;20039;-66
2023/08/01 06:45:08;;;;;;;8.70;7.82;;;;;;;;;;5092256;28;20127;-67
2023/08/01 06:47:36;;;;;;;9.30;8.40;;;;;;;;;;5090835;28;20040;-67
2023/08/01 06:50:04;;;;;;;8.77;7.85;;;;;;;;;;5092025;28;20111;-67
2023/08/01 06:52:32;;;;;;;8.73;7.82;;;;;;;;;;5091970;28;20123;-67
2023/08/01 06:54:59;;;;;;;9.15;8.27;;;;;;;;;;5091975;28;20064;-67
2023/08/01 06:57:27;;;;;;;8.77;7.82;;;;;;;;;;5092015;28;20039;-67
2023/08/01 06:59:54;;;;;;;9.80;8.75;;;;;;;;;;5091816;28;20098;-67
2023/08/01 07:02:22;;;;;;;9.18;8.27;;;;;;;;;;5091806;28;20040;-67
2023/08/01 07:04:49;;;;;;;10.90;8.15;;;;;;;;;;5095807;28;20544;-67
2023/08/01 07:07:17;;;;;;;8.55;7.75;;;;;;;;;;5095582;28;20533;-67
2023/08/01 07:09:44;;;;;;;11.00;7.90;;;;;;;;;;5095644;28;20050;-67
2023/08/01 07:12:12;;;;;;;11.88;8.68;;;;;;;;;;5094283;28;20044;-67
2023/08/01 07:14:39;;;;;;;9.10;8.13;;;;;;;;;;5095566;28;20039;-67
2023/08/01 07:17:07;;;;;;;10.90;8.30;;;;;;;;;;5095465;28;20040;-67
2023/08/01 07:19:34;;;;;;;10.43;8.82;;;;;;;;;;5095490;28;20055;-67
2023/08/01 07:22:02;;;;;;;9.35;8.55;;;;;;;;;;5095382;28;20127;-67
2023/08/01 07:24:29;;;;;;;10.52;9.52;;;;;;;;;;5094188;28;20490;-67
2023/08/01 07:26:57;;;;;;;13.25;9.23;;;;;;;;;;5095202;28;20085;-66
2023/08/01 07:29:24;;;;;;;11.10;9.85;;;;;;;;;;5095274;28;20047;-66
2023/08/01 07:31:52;;;;;;;12.18;10.73;;;;;;;;;;5095298;28;20093;-67
2023/08/01 07:34:20;;;;;;;13.57;12.00;;;;;;;;;;5095194;28;20440;-67
2023/08/01 07:36:50;;;;;;;11.70;10.23;;;;;;;;;;5095301;28;20055;-67
2023/08/01 07:39:17;;;;;;;12.32;10.68;;;;;;;;;;5095066;28;20044;-67
2023/08/01 07:41:45;;;;;;;15.32;13.07;;;;;;;;;;5095265;28;20042;-67
2023/08/01 07:44:13;;;;;;;16.10;14.45;;;;;;;;;;5094879;28;20552;-67
2023/08/01 07:46:40;;;;;;;12.18;10.85;;;;;;;;;;5095016;28;20129;-67
2023/08/01 07:49:08;;;;;;;13.05;11.75;;;;;;;;;;5095028;28;20070;-67
2023/08/01 07:51:36;;;;;;;12.23;11.05;;;;;;;;;;5094723;28;20044;-67
2023/08/01 07:54:03;;;;;;;12.82;11.52;;;;;;;;;;5094948;28;20448;-67
2023/08/01 07:56:31;;;;;;;13.18;11.77;;;;;;;;;;5094849;28;20059;-67
2023/08/01 07:58:58;;;;;;;11.52;9.73;;;;;;;;;;5094605;28;20048;-67
2023/08/01 08:01:26;;;;;;;11.02;10.00;;;;;;;;;;5094645;28;20036;-67
2023/08/01 08:03:53;;;;;;;9.40;8.38;;;;;;;;;;5094489;28;20048;-67
2023/08/01 08:06:22;;;;;;;9.98;9.07;;;;;;;;;;5094558;28;20068;-67
2023/08/01 08:08:49;;;;;;;9.70;8.65;;;;;;;;;;5094291;28;20070;-67
2023/08/01 08:11:17;;;;;;;9.80;8.60;;;;;;;;;;5094311;28;20050;-67
2023/08/01 08:13:44;;;;;;;8.50;7.70;;;;;;;;;;5094160;28;20036;-67
2023/08/01 08:16:12;;;;;;;9.98;8.98;;;;;;;;;;5094264;28;20040;-66
2023/08/01 08:18:40;;;;;;;10.20;9.10;;;;;;;;;;5094160;28;20093;-67
2023/08/01 08:21:07;;;;;;;9.50;8.55;;;;;;;;;;5094261;28;20059;-67
2023/08/01 08:23:34;;;;;;;9.35;7.85;;;;;;;;;;5094132;28;20589;-67
2023/08/01 08:26:04;;;;;;;8.82;7.97;;;;;;;;;;5094043;28;20048;-67
2023/08/01 08:28:32;;;;;;;8.48;7.60;;;;;;;;;;5094210;28;20036;-67
2023/08/01 08:31:02;;;;;;;10.68;9.05;;;;;;;;;;5093988;28;20060;-67
2023/08/01 08:33:30;;;;;;;8.48;7.68;;;;;;;;;;5094027;28;20051;-67
2023/08/01 08:35:57;;;;;;;7.28;6.32;;;;;;;;;;5093858;28;20040;-67
2023/08/01 08:38:24;;;;;;;7.18;6.47;;;;;;;;;;5093925;28;20043;-67
2023/08/01 08:40:52;;;;;;;8.75;6.60;;;;;;;;;;5094073;28;20105;-67
2023/08/01 08:43:19;;;;;;;7.90;6.68;;;;;;;;;;5092448;28;20044;-67
2023/08/01 08:45:48;;;;;;;7.13;6.10;;;;;;;;;;5092701;28;20093;-67
2023/08/01 08:48:19;;;;;;;8.15;6.35;;;;;;;;;;5093931;28;20036;-67
2023/08/01 08:50:47;;;;;;;6.25;5.65;;;;;;;;;;5093551;28;20036;-67
2023/08/01 08:53:16;;;;;;;6.60;6.00;;;;;;;;;;5093529;28;20093;-67
2023/08/01 08:55:43;;;;;;;8.02;5.93;;;;;;;;;;5093595;28;20043;-67
2023/08/01 08:58:11;;;;;;;7.22;6.20;;;;;;;;;;5093304;28;20058;-67
2023/08/01 09:00:39;;;;;;;7.20;5.97;;;;;;;;;;5093507;28;20582;-67
2023/08/01 09:03:06;;;;;;;7.78;7.07;;;;;;;;;;5093502;28;20383;-67
2023/08/01 09:05:46;;;;;;;7.35;6.60;;;;;;;;;;5093365;28;20378;-67
2023/08/01 09:08:17;;;;;;;8.13;6.65;;;;;;;;;;5093318;28;20505;-67
2023/08/01 09:10:44;;;;;;;10.02;7.47;;;;;;;;;;5093427;28;20143;-67
2023/08/01 09:13:11;;;;;;;8.00;7.20;;;;;;;;;;5093339;28;20040;-67
2023/08/01 09:15:41;;;;;;;7.95;6.82;;;;;;;;;;5093205;28;20145;-67
2023/08/01 09:18:09;;;;;;;9.30;7.47;;;;;;;;;;5093235;28;20485;-67
2023/08/01 09:20:49;;;;;;;8.85;7.95;;;;;;;;;;5093071;28;20036;-67
2023/08/01 09:23:17;;;;;;;9.25;8.18;;;;;;;;;;5093038;28;20036;-67
2023/08/01 09:25:46;;;;;;;9.88;8.95;;;;;;;;;;5092667;28;20330;-67
2023/08/01 09:28:20;;;;;;;9.55;8.63;;;;;;;;;;5093153;28;20390;-67
2023/08/01 09:30:54;;;;;;;10.23;8.60;;;;;;;;;;5092893;28;20040;-67
2023/08/01 09:33:22;;;;;;;11.48;8.77;;;;;;;;;;5092982;28;20040;-67
2023/08/01 09:35:50;;;;;;;10.05;9.00;;;;;;;;;;5092771;28;20032;-67
2023/08/01 09:38:18;;;;;;;10.30;9.30;;;;;;;;;;5092681;28;20040;-67
2023/08/01 09:40:46;;;;;;;13.15;9.05;;;;;;;;;;5092773;28;20051;-67
2023/08/01 09:43:14;;;;;;;11.52;10.43;;;;;;;;;;5092714;28;20080;-67
2023/08/01 09:45:51;;;;;;;14.80;11.73;;;;;;;;;;5091585;28;20060;-67
2023/08/01 09:48:24;;;;;;;25.67;21.55;;;;;;;;;;5092828;28;20115;-67
2023/08/01 09:50:53;;;;;;;16.08;11.52;;;;;;;;;;5092359;28;20482;-67
2023/08/01 09:53:20;;;;;;;11.63;9.93;;;;;;;;;;5092551;28;20085;-67
2023/08/01 09:55:50;;;;;;;15.95;12.95;;;;;;;;;;5091614;28;20043;-67
2023/08/01 09:58:17;;;;;;;12.40;10.15;;;;;;;;;;5091955;28;20405;-67
2023/08/01 10:00:45;;;;;;;13.60;12.15;;;;;;;;;;5092421;28;20032;-67
2023/08/01 10:03:13;;;;;;;10.70;9.60;;;;;;;;;;5092316;28;20524;-68
2023/08/01 10:05:41;;;;;;;12.88;11.57;;;;;;;;;;5092308;28;20126;-67
2023/08/01 10:08:09;;;;;;;10.43;9.20;;;;;;;;;;5092314;28;20202;-67
2023/08/01 10:10:36;;;;;;;19.80;17.77;;;;;;;;;;5092369;28;20047;-67
2023/08/01 10:13:04;;;;;;;10.45;8.38;;;;;;;;;;5090514;28;20048;-68
2023/08/01 10:15:32;;;;;;;13.50;9.68;;;;;;;;;;5091042;28;20072;-68
2023/08/01 10:18:00;;;;;;;15.52;12.15;;;;;;;;;;5092431;28;20550;-67
2023/08/01 10:20:27;;;;;;;8.43;6.68;;;;;;;;;;5092126;28;20111;-68
2023/08/01 10:22:55;;;;;;;6.40;5.18;;;;;;;;;;5092161;28;20512;-67
2023/08/01 10:25:23;;;;;;;6.75;5.72;;;;;;;;;;5092126;28;20047;-67
2023/08/01 10:28:03;;;;;;;7.40;5.80;;;;;;;;;;5092085;28;20048;-67
2023/08/01 10:30:31;;;;;;;6.57;5.47;;;;;;;;;;5091158;28;20500;-67
2023/08/01 10:32:59;;;;;;;8.63;6.63;;;;;;;;;;5090716;28;20035;-68
2023/08/01 10:35:37;;;;;;;6.63;5.03;;;;;;;;;;5091970;28;20054;-68
2023/08/01 10:38:09;;;;;;;10.23;7.65;;;;;;;;;;5093134;28;20127;-67
2023/08/01 10:40:37;;;;;;;7.10;6.00;;;;;;;;;;5096244;28;20036;-68
2023/08/01 10:43:04;;;;;;;8.15;6.47;;;;;;;;;;5096092;28;20111;-67
2023/08/01 10:45:32;;;;;;;10.45;5.40;;;;;;;;;;5096086;28;20448;-67
2023/08/01 10:48:07;;;;;;;6.25;4.40;;;;;;;;;;5094483;28;20414;-66
2023/08/01 10:50:35;;;;;;;7.32;5.25;;;;;;;;;;5095938;28;20039;-66
2023/08/01 10:53:06;;;;;;;7.95;5.50;;;;;;;;;;5095790;28;20048;-67
2023/08/01 10:55:41;;;;;;;7.72;5.47;;;;;;;;;;5095839;28;20050;-67
2023/08/01 10:58:09;;;;;;;5.63;4.20;;;;;;;;;;5095642;28;20501;-67
2023/08/01 11:00:36;;;;;;;6.90;4.63;;;;;;;;;;5094589;28;20047;-67
2023/08/01 11:03:04;;;;;;;9.95;4.60;;;;;;;;;;5095571;28;20520;-68
2023/08/01 11:05:31;;;;;;;5.70;4.15;;;;;;;;;;5095630;28;20036;-67
2023/08/01 11:08:00;;;;;;;10.00;4.57;;;;;;;;;;5095572;28;20493;-67
2023/08/01 11:10:28;;;;;;;6.45;4.70;;;;;;;;;;5095426;28;20543;-67
2023/08/01 11:12:56;;;;;;;7.47;5.32;;;;;;;;;;5094456;28;20059;-67
2023/08/01 11:15:24;;;;;;;5.95;4.40;;;;;;;;;;5095298;28;20109;-68
2023/08/01 11:17:52;;;;;;;4.90;4.40;;;;;;;;;;5093999;28;20044;-68
2023/08/01 11:20:21;;;;;;;4.97;3.90;;;;;;;;;;5094842;28;20043;-68
2023/08/01 11:22:57;;;;;;;5.03;4.53;;;;;;;;;;5095096;28;20047;-67
2023/08/01 11:25:38;;;;;;;6.60;4.20;;;;;;;;;;5095269;28;20089;-67
2023/08/01 11:28:16;;;;;;;5.55;4.13;;;;;;;;;;5095251;28;20078;-68
2023/08/01 11:30:45;;;;;;;4.43;4.03;;;;;;;;;;5095210;28;20060;-67
2023/08/01 11:33:20;;;;;;;4.85;3.45;;;;;;;;;;5095051;28;20040;-68
2023/08/01 11:35:52;;;;;;;5.75;3.70;;;;;;;;;;5093715;28;20043;-67
2023/08/01 11:38:21;;;;;;;4.32;3.60;;;;;;;;;;5094876;28;20040;-67
2023/08/01 11:40:49;;;;;;;5.28;3.78;;;;;;;;;;5094743;28;20043;-68
2023/08/01 11:43:17;;;;;;;5.30;3.20;;;;;;;;;;5093623;28;20036;-68
2023/08/01 11:45:54;;;;;;;7.07;4.03;;;;;;;;;;5093720;28;20048;-67
2023/08/01 11:48:23;;;;;;;4.15;3.55;;;;;;;;;;5094316;28;20050;-67
2023/08/01 11:50:57;;;;;;;3.80;3.40;;;;;;;;;;5094730;28;20044;-68
2023/08/01 11:53:24;;;;;;;4.97;3.67;;;;;;;;;;5094628;28;20119;-67
2023/08/01 11:55:52;;;;;;;3.92;3.50;;;;;;;;;;5094301;28;20071;-68
2023/08/01 11:58:30;;;;;;;4.90;3.80;;;;;;;;;;5093202;28;20066;-68
2023/08/01 12:01:03;;;;;;;5.18;4.13;;;;;;;;;;5094314;28;20505;-69
2023/08/01 12:03:33;;;;;;;4.63;3.90;;;;;;;;;;5094360;28;20448;-68
2023/08/01 12:06:11;;;;;;;5.30;3.83;;;;;;;;;;5094412;28;20089;-68
2023/08/01 12:08:39;;;;;;;4.97;4.28;;;;;;;;;;5092995;28;20051;-69
2023/08/01 12:11:06;;;;;;;6.80;4.13;;;;;;;;;;5094385;28;20050;-68
2023/08/01 12:13:34;;;;;;;5.07;4.13;;;;;;;;;;5094202;28;20039;-67
2023/08/01 12:16:01;;;;;;;5.90;4.18;;;;;;;;;;5094136;28;20036;-67
2023/08/01 12:18:29;;;;;;;4.03;3.63;;;;;;;;;;5094215;28;20048;-68
2023/08/01 12:21:00;;;;;;;9.18;4.32;;;;;;;;;;5094090;28;20033;-68
2023/08/01 12:23:27;;;;;;;8.07;3.60;;;;;;;;;;5093946;28;20032;-67
2023/08/01 12:25:55;;;;;;;5.05;4.53;;;;;;;;;;5093802;28;20051;-67
2023/08/01 12:28:22;;;;;;;4.95;3.47;;;;;;;;;;5093029;28;20171;-68
2023/08/01 12:30:51;;;;;;;4.60;3.63;;;;;;;;;;5093754;28;20032;-68
2023/08/01 12:33:19;;;;;;;5.82;3.50;;;;;;;;;;5091899;28;20447;-68
2023/08/01 12:35:46;;;;;;;4.47;3.50;;;;;;;;;;5093399;28;20036;-67
2023/08/01 12:38:14;;;;;;;7.85;3.58;;;;;;;;;;5093783;28;20115;-67
2023/08/01 12:40:41;;;;;;;5.82;3.90;;;;;;;;;;5092602;28;20047;-68
2023/08/01 12:43:09;;;;;;;5.30;3.50;;;;;;;;;;5092596;28;20044;-68
2023/08/01 12:45:36;;;;;;;4.15;3.53;;;;;;;;;;5093658;28;20505;-67
2023/08/01 12:48:04;;;;;;;4.82;3.40;;;;;;;;;;5093640;28;20481;-68
2023/08/01 12:50:32;;;;;;;5.40;3.78;;;;;;;;;;5093541;28;20036;-68
2023/08/01 12:52:59;;;;;;;3.53;3.22;;;;;;;;;;5092164;28;20044;-68
2023/08/01 12:55:27;;;;;;;7.63;4.30;;;;;;;;;;5093238;28;20040;-68
2023/08/01 12:57:54;;;;;;;4.97;3.08;;;;;;;;;;5092280;28;20046;-67
2023/08/01 13:00:22;;;;;;;4.65;3.40;;;;;;;;;;5091361;28;20047;-67
2023/08/01 13:02:50;;;;;;;7.13;3.80;;;;;;;;;;5093213;28;20036;-68
2023/08/01 13:05:18;;;;;;;6.93;3.28;;;;;;;;;;5093405;28;20544;-68
2023/08/01 13:07:45;;;;;;;4.75;3.40;;;;;;;;;;5092850;28;20075;-68
2023/08/01 13:10:13;;;;;;;4.78;3.70;;;;;;;;;;5092981;28;20539;-68
2023/08/01 13:12:41;;;;;;;7.95;3.42;;;;;;;;;;5092976;28;20490;-73
2023/08/01 13:15:09;;;;;;;5.05;4.00;;;;;;;;;;5092015;28;20048;-68
2023/08/01 13:17:44;;;;;;;4.55;3.45;;;;;;;;;;5074634;28;20032;-70
2023/08/01 13:20:12;;;;;;;5.80;3.65;;;;;;;;;;5077733;28;20462;-70
2023/08/01 13:22:40;;;;;;;4.95;4.07;;;;;;;;;;5072656;28;20040;-69
2023/08/01 13:25:07;;;;;;;4.80;3.53;;;;;;;;;;5072611;28;20060;-69
2023/08/01 13:27:35;;;;;;;4.47;2.88;;;;;;;;;;5072537;28;20037;-69
2023/08/01 13:30:03;;;;;;;4.80;3.47;;;;;;;;;;5071469;28;20052;-70
2023/08/01 13:32:31;;;;;;;6.13;3.30;;;;;;;;;;5072385;28;20071;-69
2023/08/01 13:34:58;;;;;;;3.03;2.75;;;;;;;;;;5071291;28;20478;-69
2023/08/01 13:37:26;;;;;;;3.88;2.97;;;;;;;;;;5071096;28;20045;-69
2023/08/01 13:39:54;;;;;;;4.15;3.00;;;;;;;;;;5072401;28;20043;-70
2023/08/01 13:42:21;;;;;;;3.33;3.03;;;;;;;;;;5072458;28;20068;-69
2023/08/01 13:44:49;;;;;;;5.15;3.28;;;;;;;;;;5072655;28;20117;-69
2023/08/01 13:47:16;;;;;;;4.20;3.30;;;;;;;;;;5071217;28;20052;-68
2023/08/01 13:49:44;;;;;;;5.72;3.30;;;;;;;;;;5072276;28;20044;-70
2023/08/01 13:52:11;;;;;;;4.55;3.25;;;;;;;;;;5093410;28;20031;-71
2023/08/01 13:54:39;;;;;;;6.95;3.47;;;;;;;;;;5109637;28;20130;-71
2023/08/01 13:57:07;;;;;;;3.25;2.95;;;;;;;;;;5090733;28;20474;-70
2023/08/01 13:59:34;;;;;;;5.47;3.83;;;;;;;;;;5089144;28;20627;-77
2023/08/01 14:02:03;;;;;;;8.55;6.45;;;;;;;;;;5072039;28;20056;-75
2023/08/01 14:04:30;;;;;;;4.57;3.13;;;;;;;;;;5070900;28;20122;-74
2023/08/01 14:06:58;;;;;;;4.47;3.10;;;;;;;;;;5071976;28;20068;-73
2023/08/01 14:09:25;;;;;;;4.75;3.35;;;;;;;;;;5072513;28;20081;-73
2023/08/01 14:11:53;;;;;;;4.18;3.30;;;;;;;;;;5084357;28;20110;-70
2023/08/01 14:14:22;;;;;;;5.20;3.97;;;;;;;;;;5086865;28;20036;-72
2023/08/01 14:16:50;;;;;;;3.67;2.97;;;;;;;;;;5089780;28;20044;-73
2023/08/01 14:19:17;;;;;;;3.80;3.03;;;;;;;;;;5087750;28;20549;-72
2023/08/01 14:21:45;;;;;;;4.00;3.38;;;;;;;;;;5086605;28;20113;-73
2023/08/01 14:24:13;;;;;;;5.57;3.28;;;;;;;;;;5090183;28;20044;-71
2023/08/01 14:26:41;;;;;;;4.25;3.15;;;;;;;;;;5089021;28;20060;-73
2023/08/01 14:29:09;;;;;;;4.20;3.60;;;;;;;;;;5089654;28;20047;-72
2023/08/01 14:31:36;;;;;;;6.40;3.40;;;;;;;;;;5090095;28;20132;-71
2023/08/01 14:34:04;;;;;;;3.83;3.20;;;;;;;;;;5074222;28;20051;-73